Narka, Kansas
Current Conditions -  °F | °C
As of 9:15 PM on Sunday 21 Dec 2014 (Local Time) from KHJH Reporting Station
Haze Haze  
Wind Chill:   Ceiling: 600
Heat Index:   Visibility: 5mi
Dew Point:   Wind: 9mph
Humidity: 91%   Direction: 170°S
Pressure: 29.63"   Gusts: NA
Location:  39.96°N, 97.43°W
Report Text: KHJH 220315Z AUTO 17008KT 5SM BR OVC006 06/05 A2963 RMK AO2 T00580045
Loading
Personal Weather Stations






























Interactive Weather Map New forecast layout! Learn more

10-Day Weather Forecast

Advertisements
Track Severe Weather on mobile